Página principal
METAR-TAF:

METAR-TAF

Aeroportos :

Aeroporto Internacional de La Tontouta

Nouméa / La Tontouta, Nova Caledónia

latitude: 22-01S, longitude: 166-13E, altura: 16 m

Observação actual do tempo

O boletim foi feito há 15 minutos, às 17:00 UTC
Vento 5 kt com direcção variável
Temperatura 23°C
Humidade 89%
Pressão 1008 hPa
Visibilidade 10 km ou mais
sem nuvens abaixo de 1500 metros e sem cumulonimbus

METAR: NWWW 221700Z AUTO VRB05KT CAVOK 23/21 Q1008 TEMPO 4500 SHRA FEW018TCU

Hora: 04:15 (17:15 UTC)


TAF: em falta

Observações e previsões do tempo de mais de 4000 aeroportos (mensagens METAR e TAF).

As estações disponíveis são os pontos amarelos e vermelhos sobre o mapa.

Mova o rato sobre o mapa para ver o nome da estação.

Depois clique no ponto para visualizar as observações e previsões meteorológicas.

Para alterar o mapa : clique nos botões verdes com uma cruz preta para aumentar o zoom; no botão verde com uma pitada de zoom; ou nas setas verdes para mapas adjacentes.


METAR-TAF: